Time;durP1;ratioP1;P1;durP2;ratioP2;P2;SDS_P1;SDS_P2;PMS_P1;PMS_P2;Temp;Humidity;BMP_temperature;BMP_pressure;BME280_temperature;BME280_humidity;BME280_pressure;Samples;Min_cycle;Max_cycle;Signal;HPM_P1;HPM_P2
2023/07/26 00:00:06;;;;;;;;;;;29.60;99.90;;;;;;5133919;27;20323;-73
2023/07/26 00:02:32;;;;;;;;;;;29.50;99.90;;;;;;5133966;27;19915;-73
2023/07/26 00:04:58;;;;;;;;;;;29.40;99.90;;;;;;5134140;27;19934;-73
2023/07/26 00:07:24;;;;;;;;;;;29.30;99.90;;;;;;5133842;27;19923;-76
2023/07/26 00:09:50;;;;;;;;;;;29.30;99.90;;;;;;5133836;27;20319;-74
2023/07/26 00:12:15;;;;;;;;;;;29.40;99.90;;;;;;5132403;28;19909;-74
2023/07/26 00:14:42;;;;;;;;;;;29.10;99.90;;;;;;5134000;27;19956;-74
2023/07/26 00:17:07;;;;;;;;;;;29.20;99.90;;;;;;5132242;28;20367;-74
2023/07/26 00:19:33;;;;;;;;;;;29.20;99.90;;;;;;5133796;27;19903;-74
2023/07/26 00:21:59;;;;;;;;;;;29.40;99.90;;;;;;5132239;28;20006;-74
2023/07/26 00:24:25;;;;;;;;;;;29.50;99.90;;;;;;5132248;28;20347;-74
2023/07/26 00:26:51;;;;;;;;;;;29.50;99.90;;;;;;5133853;27;19908;-74
2023/07/26 00:29:16;;;;;;;;;;;29.50;99.90;;;;;;5133672;27;19903;-74
2023/07/26 00:31:42;;;;;;;;;;;29.40;99.90;;;;;;5133687;27;19914;-74
2023/07/26 00:34:08;;;;;;;;;;;29.50;99.90;;;;;;5133383;27;20336;-74
2023/07/26 00:36:34;;;;;;;;;;;29.50;99.90;;;;;;5132144;28;20052;-74
2023/07/26 00:39:00;;;;;;;;;;;29.60;99.90;;;;;;5133949;27;20224;-74
2023/07/26 00:41:25;;;;;;;;;;;29.50;99.90;;;;;;5134449;27;19910;-74
2023/07/26 00:43:51;;;;;;;;;;;29.40;99.90;;;;;;5137983;27;19904;-74
2023/07/26 00:46:17;;;;;;;;;;;29.40;99.90;;;;;;5137420;27;20271;-74
2023/07/26 00:48:43;;;;;;;;;;;29.40;99.90;;;;;;5137411;27;19907;-74
2023/07/26 00:51:09;;;;;;;;;;;29.40;99.90;;;;;;5137943;27;19956;-74
2023/07/26 00:53:35;;;;;;;;;;;29.50;99.90;;;;;;5137390;27;19904;-74
2023/07/26 00:56:02;;;;;;;;;;;29.50;99.90;;;;;;5137340;27;20285;-74
2023/07/26 00:58:28;;;;;;;;;;;29.60;99.90;;;;;;5137702;27;20296;-73
2023/07/26 01:00:54;;;;;;;;;;;29.70;99.90;;;;;;5135839;27;20312;-74
2023/07/26 01:03:20;;;;;;;;;;;29.70;99.90;;;;;;5135630;27;20274;-75
2023/07/26 01:05:53;;;;;;;;;;;29.80;99.90;;;;;;5137360;27;19911;-74
2023/07/26 01:08:28;;;;;;;;;;;29.60;99.90;;;;;;5137377;27;20271;-74
2023/07/26 01:10:57;;;;;;;;;;;29.50;99.90;;;;;;5137123;27;19904;-74
2023/07/26 01:13:26;;;;;;;;;;;29.40;99.90;;;;;;5137497;27;19903;-75
2023/07/26 01:15:53;;;;;;;;;;;29.00;99.90;;;;;;5136889;27;19928;-74
2023/07/26 01:18:18;;;;;;;;;;;28.90;99.90;;;;;;5136899;27;19908;-74
2023/07/26 01:20:44;;;;;;;;;;;28.70;99.90;;;;;;5136851;27;19903;-74
2023/07/26 01:23:10;;;;;;;;;;;28.40;99.90;;;;;;5135302;27;20300;-74
2023/07/26 01:25:36;;;;;;;;;;;28.40;99.90;;;;;;5136712;27;19912;-74
2023/07/26 01:28:02;;;;;;;;;;;28.40;99.90;;;;;;5135312;27;19911;-74
2023/07/26 01:30:29;;;;;;;;;;;28.70;99.90;;;;;;5137099;27;19956;-74
2023/07/26 01:32:56;;;;;;;;;;;29.00;99.90;;;;;;5136121;27;19907;-74
2023/07/26 01:35:22;;;;;;;;;;;29.10;99.90;;;;;;5136886;27;19939;-74
2023/07/26 01:37:47;;;;;;;;;;;29.20;99.90;;;;;;5136637;27;19947;-74
2023/07/26 01:40:14;;;;;;;;;;;29.20;99.90;;;;;;5136833;27;20370;-74
2023/07/26 01:42:41;;;;;;;;;;;29.10;99.90;;;;;;5136493;27;19907;-74
2023/07/26 01:45:09;;;;;;;;;;;29.10;99.90;;;;;;5136302;27;19998;-74
2023/07/26 01:47:35;;;;;;;;;;;29.10;99.90;;;;;;5136547;27;19903;-74
2023/07/26 01:50:01;;;;;;;;;;;29.10;99.90;;;;;;5136742;27;19903;-74
2023/07/26 01:52:27;;;;;;;;;;;29.10;99.90;;;;;;5136327;27;20332;-75
2023/07/26 01:54:52;;;;;;;;;;;29.20;99.90;;;;;;5136261;27;19914;-74
2023/07/26 01:57:22;;;;;;;;;;;29.20;99.90;;;;;;5136465;27;19904;-74
2023/07/26 01:59:48;;;;;;;;;;;29.30;99.90;;;;;;5134708;27;19957;-73
2023/07/26 02:02:14;;;;;;;;;;;29.30;99.90;;;;;;5135898;27;19907;-75
2023/07/26 02:04:40;;;;;;;;;;;29.40;99.90;;;;;;5136037;27;20401;-71
2023/07/26 02:07:05;;;;;;;;;;;29.40;99.90;;;;;;5134624;27;20014;-74
2023/07/26 02:09:31;;;;;;;;;;;29.50;99.90;;;;;;5134528;27;19942;-74
2023/07/26 02:11:57;;;;;;;;;;;29.50;99.90;;;;;;5135916;27;20009;-75
2023/07/26 02:14:23;;;;;;;;;;;29.50;99.90;;;;;;5135892;27;19933;-74
2023/07/26 02:16:48;;;;;;;;;;;29.60;99.90;;;;;;5135641;27;19939;-74
2023/07/26 02:19:15;;;;;;;;;;;29.60;99.90;;;;;;5136340;27;19904;-74
2023/07/26 02:21:40;;;;;;;;;;;29.60;99.90;;;;;;5135683;27;19903;-74
2023/07/26 02:24:06;;;;;;;;;;;29.60;99.90;;;;;;5135738;27;20240;-74
2023/07/26 02:26:32;;;;;;;;;;;29.70;99.90;;;;;;5135557;27;19919;-74
2023/07/26 02:28:58;;;;;;;;;;;29.70;99.90;;;;;;5135627;27;20012;-74
2023/07/26 02:31:24;;;;;;;;;;;29.70;99.90;;;;;;5134237;27;19904;-74
2023/07/26 02:33:49;;;;;;;;;;;29.70;99.90;;;;;;5135166;27;20287;-72
2023/07/26 02:36:15;;;;;;;;;;;29.70;99.90;;;;;;5135446;27;19903;-74
2023/07/26 02:38:41;;;;;;;;;;;29.80;99.90;;;;;;5135910;27;19910;-74
2023/07/26 02:41:07;;;;;;;;;;;29.80;99.90;;;;;;5135348;27;19946;-74
2023/07/26 02:43:33;;;;;;;;;;;29.80;99.90;;;;;;5135817;27;20024;-74
2023/07/26 02:45:58;;;;;;;;;;;29.70;99.90;;;;;;5135475;27;19911;-74
2023/07/26 02:48:24;;;;;;;;;;;29.60;99.90;;;;;;5135043;27;19927;-74
2023/07/26 02:50:50;;;;;;;;;;;29.60;99.90;;;;;;5135126;27;19969;-74
2023/07/26 02:53:16;;;;;;;;;;;29.50;99.90;;;;;;5135054;27;19903;-74
2023/07/26 02:55:42;;;;;;;;;;;29.40;99.90;;;;;;5133721;27;19968;-74
2023/07/26 02:58:08;;;;;;;;;;;29.30;99.90;;;;;;5135084;27;20347;-75
2023/07/26 03:00:34;;;;;;;;;;;29.20;99.90;;;;;;5133760;27;19903;-74
2023/07/26 03:03:00;;;;;;;;;;;29.20;99.90;;;;;;5134812;27;19904;-74
2023/07/26 03:05:26;;;;;;;;;;;29.00;99.90;;;;;;5134436;27;19907;-75
2023/07/26 03:07:51;;;;;;;;;;;29.00;99.90;;;;;;5134803;27;19903;-74
2023/07/26 03:10:17;;;;;;;;;;;28.80;99.90;;;;;;5134786;27;20243;-74
2023/07/26 03:12:43;;;;;;;;;;;28.90;99.90;;;;;;5135221;27;19950;-74
2023/07/26 03:15:09;;;;;;;;;;;28.90;99.90;;;;;;5134707;27;19926;-74
2023/07/26 03:17:35;;;;;;;;;;;29.00;99.90;;;;;;5133551;27;19946;-74
2023/07/26 03:20:01;;;;;;;;;;;29.00;99.90;;;;;;5135118;27;20346;-74
2023/07/26 03:22:26;;;;;;;;;;;29.10;99.90;;;;;;5134582;27;19907;-74
2023/07/26 03:24:52;;;;;;;;;;;29.10;99.90;;;;;;5135192;27;19911;-74
2023/07/26 03:27:18;;;;;;;;;;;29.00;99.90;;;;;;5133095;27;19998;-73
2023/07/26 03:29:44;;;;;;;;;;;28.90;99.90;;;;;;5134708;27;19961;-74
2023/07/26 03:32:10;;;;;;;;;;;29.00;99.90;;;;;;5134239;27;19903;-74
2023/07/26 03:34:35;;;;;;;;;;;29.00;99.90;;;;;;5134267;27;19922;-74
2023/07/26 03:37:02;;;;;;;;;;;28.90;99.90;;;;;;5134334;27;19911;-74
2023/07/26 03:39:27;;;;;;;;;;;28.90;99.90;;;;;;5132923;27;19903;-74
2023/07/26 03:41:54;;;;;;;;;;;28.80;99.90;;;;;;5134271;27;20316;-74
2023/07/26 03:44:20;;;;;;;;;;;28.90;99.90;;;;;;5134486;27;19903;-74
2023/07/26 03:46:46;;;;;;;;;;;28.80;99.90;;;;;;5134181;27;19918;-73
2023/07/26 03:49:11;;;;;;;;;;;28.90;99.90;;;;;;5134149;27;19952;-74
2023/07/26 03:51:37;;;;;;;;;;;28.90;99.90;;;;;;5134092;27;19942;-74
2023/07/26 03:54:03;;;;;;;;;;;28.90;99.90;;;;;;5133977;27;19908;-74
2023/07/26 03:56:29;;;;;;;;;;;29.00;99.90;;;;;;5134115;27;19903;-73
2023/07/26 03:58:55;;;;;;;;;;;29.00;99.90;;;;;;5134198;27;19960;-74
2023/07/26 04:01:20;;;;;;;;;;;29.00;99.90;;;;;;5134244;27;20032;-74
2023/07/26 04:03:46;;;;;;;;;;;28.90;99.90;;;;;;5133808;27;19954;-75
2023/07/26 04:06:12;;;;;;;;;;;28.60;99.90;;;;;;5134341;27;19922;-74
2023/07/26 04:08:39;;;;;;;;;;;28.30;99.90;;;;;;5133857;27;20382;-74
2023/07/26 04:11:05;;;;;;;;;;;28.10;99.90;;;;;;5133949;27;19939;-74
2023/07/26 04:13:31;;;;;;;;;;;28.00;99.90;;;;;;5134382;27;19958;-74
2023/07/26 04:15:57;;;;;;;;;;;28.10;99.90;;;;;;5132632;27;20056;-74
2023/07/26 04:18:23;;;;;;;;;;;28.00;99.90;;;;;;5137955;27;19909;-74
2023/07/26 04:20:49;;;;;;;;;;;28.00;99.90;;;;;;5138166;27;19903;-74
2023/07/26 04:23:15;;;;;;;;;;;28.10;99.90;;;;;;5137982;27;19910;-74
2023/07/26 04:25:40;;;;;;;;;;;28.10;99.90;;;;;;5138678;27;19912;-73
2023/07/26 04:28:06;;;;;;;;;;;28.10;99.90;;;;;;5138168;27;19909;-74
2023/07/26 04:30:35;;;;;;;;;;;27.90;99.90;;;;;;5137978;27;20355;-74
2023/07/26 04:33:01;;;;;;;;;;;27.90;99.90;;;;;;5137514;27;19908;-74
2023/07/26 04:35:27;;;;;;;;;;;27.90;99.90;;;;;;5137752;27;20264;-74
2023/07/26 04:37:52;;;;;;;;;;;27.90;99.90;;;;;;5138076;27;19903;-73
2023/07/26 04:40:18;;;;;;;;;;;28.00;99.90;;;;;;5137947;27;19903;-74
2023/07/26 04:42:44;;;;;;;;;;;27.90;99.90;;;;;;5136358;27;19903;-73
2023/07/26 04:45:10;;;;;;;;;;;27.90;99.90;;;;;;5136180;27;19990;-74
2023/07/26 04:47:36;;;;;;;;;;;27.80;99.90;;;;;;5137432;27;19904;-73
2023/07/26 04:50:01;;;;;;;;;;;27.80;99.90;;;;;;5138041;27;19948;-73
2023/07/26 04:52:27;;;;;;;;;;;27.70;99.90;;;;;;5135972;27;19972;-73
2023/07/26 04:54:53;;;;;;;;;;;27.70;99.90;;;;;;5137680;27;19942;-72
2023/07/26 04:57:19;;;;;;;;;;;27.60;99.90;;;;;;5137481;27;19910;-73
2023/07/26 04:59:44;;;;;;;;;;;27.80;99.90;;;;;;5137288;27;19910;-74
2023/07/26 05:02:10;;;;;;;;;;;28.00;99.90;;;;;;5137482;27;19904;-73
2023/07/26 05:04:36;;;;;;;;;;;28.10;99.90;;;;;;5137918;27;19903;-73
2023/07/26 05:07:02;;;;;;;;;;;28.00;99.90;;;;;;5137516;27;20266;-73
2023/07/26 05:09:28;;;;;;;;;;;28.20;99.90;;;;;;5137107;27;19942;-73
2023/07/26 05:11:53;;;;;;;;;;;28.50;99.90;;;;;;5137542;27;19914;-73
2023/07/26 05:14:20;;;;;;;;;;;28.80;99.90;;;;;;5137138;27;20308;-74
2023/07/26 05:16:46;;;;;;;;;;;29.10;99.90;;;;;;5137301;27;19903;-73
2023/07/26 05:19:12;;;;;;;;;;;29.60;99.90;;;;;;5137391;27;19907;-74
2023/07/26 05:21:38;;;;;;;;;;;29.90;99.90;;;;;;5136968;27;19903;-73
2023/07/26 05:24:04;;;;;;;;;;;30.00;99.90;;;;;;5136772;27;19903;-74
2023/07/26 05:26:30;;;;;;;;;;;30.50;99.90;;;;;;5137237;27;19918;-75
2023/07/26 05:28:55;;;;;;;;;;;30.60;99.90;;;;;;5136289;27;19903;-74
2023/07/26 05:31:21;;;;;;;;;;;30.60;99.90;;;;;;5135268;27;19904;-75
2023/07/26 05:33:47;;;;;;;;;;;31.10;99.90;;;;;;5136266;27;19966;-74
2023/07/26 05:36:13;;;;;;;;;;;31.60;99.90;;;;;;5136613;27;20316;-74
2023/07/26 05:38:39;;;;;;;;;;;32.40;99.90;;;;;;5136846;27;19968;-74
2023/07/26 05:41:05;;;;;;;;;;;32.50;99.90;;;;;;5135010;27;19930;-74
2023/07/26 05:43:31;;;;;;;;;;;33.00;99.90;;;;;;5136408;27;19969;-75
2023/07/26 05:45:57;;;;;;;;;;;33.30;99.90;;;;;;5136774;27;19923;-73
2023/07/26 05:48:22;;;;;;;;;;;33.70;99.90;;;;;;5136399;27;19904;-75
2023/07/26 05:50:48;;;;;;;;;;;33.90;99.90;;;;;;5134979;27;19911;-75
2023/07/26 05:53:14;;;;;;;;;;;34.90;99.90;;;;;;5136214;27;19948;-75
2023/07/26 05:55:40;;;;;;;;;;;35.10;99.90;;;;;;5134935;27;19911;-74
2023/07/26 05:58:06;;;;;;;;;;;35.30;99.90;;;;;;5136882;27;19911;-75
2023/07/26 06:00:31;;;;;;;;;;;35.70;99.90;;;;;;5136213;27;20426;-74
2023/07/26 06:02:57;;;;;;;;;;;36.20;99.90;;;;;;5136024;27;19910;-75
2023/07/26 06:05:24;;;;;;;;;;;37.30;99.90;;;;;;5136433;27;20236;-73
2023/07/26 06:07:50;;;;;;;;;;;36.90;99.90;;;;;;5134635;27;19925;-70
2023/07/26 06:10:16;;;;;;;;;;;36.90;99.90;;;;;;5135754;27;19904;-74
2023/07/26 06:12:42;;;;;;;;;;;36.80;99.90;;;;;;5134491;27;20312;-73
2023/07/26 06:15:08;;;;;;;;;;;37.90;99.90;;;;;;5136215;27;20285;-72
2023/07/26 06:17:34;;;;;;;;;;;37.20;99.90;;;;;;5134214;27;19907;-72
2023/07/26 06:19:59;;;;;;;;;;;37.20;99.90;;;;;;5136141;27;19903;-72
2023/07/26 06:22:25;;;;;;;;;;;37.10;99.90;;;;;;5135491;27;20362;-72
2023/07/26 06:24:51;;;;;;;;;;;37.00;99.90;;;;;;5135567;27;19910;-75
2023/07/26 06:27:21;;;;;;;;;;;37.50;99.90;;;;;;5134351;27;19903;-72
2023/07/26 06:29:47;;;;;;;;;;;37.60;99.90;;;;;;5136275;27;19903;-73
2023/07/26 06:32:13;;;;;;;;;;;38.00;99.90;;;;;;5135264;27;19956;-72
2023/07/26 06:34:39;;;;;;;;;;;38.10;99.90;;;;;;5135260;27;19915;-72
2023/07/26 06:37:05;;;;;;;;;;;37.90;99.90;;;;;;5135356;27;19948;-72
2023/07/26 06:39:31;;;;;;;;;;;38.00;99.90;;;;;;5134892;27;19952;-74
2023/07/26 06:41:57;;;;;;;;;;;38.30;99.90;;;;;;5135375;27;19910;-73
2023/07/26 06:44:22;;;;;;;;;;;38.40;99.90;;;;;;5135717;27;19930;-73
2023/07/26 06:46:48;;;;;;;;;;;39.70;99.90;;;;;;5135118;27;19919;-73
2023/07/26 06:49:14;;;;;;;;;;;40.30;99.90;;;;;;5134915;27;19903;-73
2023/07/26 06:51:40;;;;;;;;;;;40.40;99.90;;;;;;5135313;27;19907;-73
2023/07/26 06:54:06;;;;;;;;;;;39.90;99.90;;;;;;5134996;27;19943;-73
2023/07/26 06:56:31;;;;;;;;;;;39.90;98.80;;;;;;5135531;27;19912;-74
2023/07/26 06:58:57;;;;;;;;;;;39.70;98.90;;;;;;5134974;27;20220;-73
2023/07/26 07:01:23;;;;;;;;;;;40.50;97.00;;;;;;5134805;27;20071;-74
2023/07/26 07:03:49;;;;;;;;;;;41.40;96.40;;;;;;5134658;27;19904;-73
2023/07/26 07:06:15;;;;;;;;;;;41.20;95.70;;;;;;5133342;27;19923;-74
2023/07/26 07:08:41;;;;;;;;;;;40.90;96.00;;;;;;5134995;27;20347;-74
2023/07/26 07:11:06;;;;;;;;;;;41.60;95.20;;;;;;5134704;27;19943;-73
2023/07/26 07:13:36;;;;;;;;;;;41.00;95.40;;;;;;5135272;27;19903;-74
2023/07/26 07:16:03;;;;;;;;;;;38.30;96.60;;;;;;5134531;27;20381;-73
2023/07/26 07:18:30;;;;;;;;;;;37.40;98.50;;;;;;5134602;27;19903;-75
2023/07/26 07:20:57;;;;;;;;;;;36.80;99.50;;;;;;5134997;27;20323;-74
2023/07/26 07:23:23;;;;;;;;;;;37.50;99.40;;;;;;5134378;27;19904;-75
2023/07/26 07:25:49;;;;;;;;;;;37.80;99.10;;;;;;5133115;27;19918;-74
2023/07/26 07:28:15;;;;;;;;;;;37.80;99.10;;;;;;5134423;27;19907;-71
2023/07/26 07:30:41;;;;;;;;;;;37.80;98.40;;;;;;5134977;27;19914;-75
2023/07/26 07:33:06;;;;;;;;;;;37.90;98.50;;;;;;5133883;27;19919;-74
2023/07/26 07:35:32;;;;;;;;;;;37.40;99.00;;;;;;5134787;27;19964;-75
2023/07/26 07:37:58;;;;;;;;;;;36.60;99.70;;;;;;5133046;27;20259;-74
2023/07/26 07:40:26;;;;;;;;;;;36.60;99.90;;;;;;5134033;27;19942;-74
2023/07/26 07:42:52;;;;;;;;;;;37.00;99.90;;;;;;5133036;27;19989;-74
2023/07/26 07:45:18;;;;;;;;;;;37.50;99.40;;;;;;5134459;27;20006;-74
2023/07/26 07:47:43;;;;;;;;;;;38.20;98.60;;;;;;5132445;27;19918;-74
2023/07/26 07:50:09;;;;;;;;;;;38.10;98.70;;;;;;5134356;27;19911;-74
2023/07/26 07:52:35;;;;;;;;;;;38.30;98.40;;;;;;5133864;27;19910;-74
2023/07/26 07:55:01;;;;;;;;;;;38.30;98.10;;;;;;5134446;27;20252;-74
2023/07/26 07:57:27;;;;;;;;;;;37.90;98.50;;;;;;5134168;27;19994;-74
2023/07/26 07:59:53;;;;;;;;;;;37.90;98.40;;;;;;5133950;27;19910;-74
2023/07/26 08:02:18;;;;;;;;;;;37.70;98.10;;;;;;5134197;27;19903;-74
2023/07/26 08:04:44;;;;;;;;;;;37.60;97.80;;;;;;5132292;27;20011;-74
2023/07/26 08:07:10;;;;;;;;;;;37.50;97.40;;;;;;5133886;27;20073;-75
2023/07/26 08:09:36;;;;;;;;;;;37.50;96.90;;;;;;5132395;27;20393;-75
2023/07/26 08:12:02;;;;;;;;;;;37.40;96.90;;;;;;5134297;27;19903;-75
2023/07/26 08:14:28;;;;;;;;;;;37.40;96.80;;;;;;5134075;27;19903;-75
2023/07/26 08:16:54;;;;;;;;;;;37.10;96.00;;;;;;5134154;27;20278;-74
2023/07/26 08:19:20;;;;;;;;;;;36.60;95.60;;;;;;5133557;27;19912;-75
2023/07/26 08:21:46;;;;;;;;;;;36.30;95.30;;;;;;5133649;28;20319;-75
2023/07/26 08:24:11;;;;;;;;;;;36.30;95.10;;;;;;5134084;27;19986;-74
2023/07/26 08:26:37;;;;;;;;;;;36.60;94.70;;;;;;5133450;28;20351;-74
2023/07/26 08:29:03;;;;;;;;;;;35.60;95.10;;;;;;5133718;27;19986;-75
2023/07/26 08:31:29;;;;;;;;;;;35.40;95.60;;;;;;5133959;27;19954;-75
2023/07/26 08:33:55;;;;;;;;;;;35.40;95.10;;;;;;5133387;28;20043;-75
2023/07/26 08:36:21;;;;;;;;;;;35.30;94.40;;;;;;5133613;27;20342;-75
2023/07/26 08:38:46;;;;;;;;;;;35.30;94.40;;;;;;5133416;27;19991;-73
2023/07/26 08:41:12;;;;;;;;;;;35.40;94.40;;;;;;5133337;27;19907;-73
2023/07/26 08:43:46;;;;;;;;;;;34.90;94.70;;;;;;5133410;27;20013;-74
2023/07/26 08:46:13;;;;;;;;;;;34.60;95.60;;;;;;5131796;28;19915;-73
2023/07/26 08:48:39;;;;;;;;;;;35.10;95.80;;;;;;5133312;27;19910;-74
2023/07/26 08:51:05;;;;;;;;;;;35.40;95.60;;;;;;5133324;27;19903;-73
2023/07/26 08:53:31;;;;;;;;;;;35.30;96.00;;;;;;5132091;28;19923;-74
2023/07/26 08:55:57;;;;;;;;;;;35.40;95.90;;;;;;5133490;27;19965;-74
2023/07/26 08:58:23;;;;;;;;;;;35.30;95.80;;;;;;5132020;28;19904;-73
2023/07/26 09:00:49;;;;;;;;;;;35.40;95.40;;;;;;5133726;27;19910;-72
2023/07/26 09:03:16;;;;;;;;;;;35.30;94.50;;;;;;5135511;27;20271;-73
2023/07/26 09:05:42;;;;;;;;;;;35.60;94.20;;;;;;5137024;27;20064;-74
2023/07/26 09:08:09;;;;;;;;;;;35.60;94.20;;;;;;5137121;27;19903;-74
2023/07/26 09:10:34;;;;;;;;;;;35.70;93.90;;;;;;5137265;27;19981;-74
2023/07/26 09:13:09;;;;;;;;;;;35.60;93.80;;;;;;5136990;27;19948;-74
2023/07/26 09:15:39;;;;;;;;;;;35.40;93.30;;;;;;5135289;27;19998;-74
2023/07/26 09:18:05;;;;;;;;;;;35.40;93.20;;;;;;5136690;27;19911;-74
2023/07/26 09:20:31;;;;;;;;;;;35.50;93.70;;;;;;5135381;27;19903;-74
2023/07/26 09:23:04;;;;;;;;;;;35.80;93.70;;;;;;5136779;27;20308;-74
2023/07/26 09:25:34;;;;;;;;;;;36.00;93.30;;;;;;5136609;27;19908;-75
2023/07/26 09:28:00;;;;;;;;;;;36.10;93.20;;;;;;5137022;27;19968;-74
2023/07/26 09:30:27;;;;;;;;;;;36.00;92.60;;;;;;5136823;27;19925;-75
2023/07/26 09:32:53;;;;;;;;;;;35.90;92.40;;;;;;5134915;27;19967;-75
2023/07/26 09:35:19;;;;;;;;;;;36.20;92.30;;;;;;5137405;27;20459;-75
2023/07/26 09:37:45;;;;;;;;;;;36.10;92.10;;;;;;5136817;27;19907;-75
2023/07/26 09:40:11;;;;;;;;;;;36.50;90.10;;;;;;5136579;27;19914;-74
2023/07/26 09:42:44;;;;;;;;;;;37.00;89.70;;;;;;5137104;27;19904;-74
2023/07/26 09:45:28;;;;;;;;;;;36.80;87.30;;;;;;5134748;27;20001;-74
2023/07/26 09:48:04;;;;;;;;;;;35.90;87.60;;;;;;5117378;27;19907;-72
2023/07/26 09:50:29;;;;;;;;;;;35.40;87.90;;;;;;5134965;27;20281;-74
2023/07/26 09:52:56;;;;;;;;;;;35.10;89.20;;;;;;5134703;27;19903;-73
2023/07/26 09:55:23;;;;;;;;;;;35.60;88.00;;;;;;5136219;27;19903;-74
2023/07/26 09:57:50;;;;;;;;;;;35.40;86.00;;;;;;5136577;27;20063;-73
2023/07/26 10:00:16;;;;;;;;;;;35.40;86.60;;;;;;5135976;27;19903;-74
2023/07/26 10:02:45;;;;;;;;;;;35.60;87.10;;;;;;5135924;27;20351;-74
2023/07/26 10:05:13;;;;;;;;;;;35.40;87.10;;;;;;5136024;27;19907;-73
2023/07/26 10:07:40;;;;;;;;;;;35.40;87.40;;;;;;5134426;27;20340;-74
2023/07/26 10:10:07;;;;;;;;;;;35.10;88.10;;;;;;5136116;27;19949;-73
2023/07/26 10:12:33;;;;;;;;;;;35.50;87.30;;;;;;5136213;27;20351;-72
2023/07/26 10:15:00;;;;;;;;;;;35.80;86.50;;;;;;5134693;27;20426;-72
2023/07/26 10:17:26;;;;;;;;;;;35.90;85.20;;;;;;5136016;27;19921;-73
2023/07/26 10:19:52;;;;;;;;;;;35.70;85.10;;;;;;5136142;27;19903;-74
2023/07/26 10:22:25;;;;;;;;;;;35.70;84.50;;;;;;5135663;27;20347;-73
2023/07/26 10:24:50;;;;;;;;;;;35.80;85.00;;;;;;5134038;27;20277;-74
2023/07/26 10:27:16;;;;;;;;;;;35.80;86.00;;;;;;5135402;27;19915;-73
2023/07/26 10:29:43;;;;;;;;;;;36.00;87.10;;;;;;5135942;27;20086;-73
2023/07/26 10:32:09;;;;;;;;;;;36.00;89.40;;;;;;5135767;27;19903;-73
2023/07/26 10:34:34;;;;;;;;;;;35.80;90.40;;;;;;5135108;27;19919;-73
2023/07/26 10:37:20;;;;;;;;;;;35.60;91.30;;;;;;5135320;27;20351;-74
2023/07/26 10:39:48;;;;;;;;;;;35.70;91.30;;;;;;5135051;27;19911;-73
2023/07/26 10:42:24;;;;;;;;;;;36.00;91.50;;;;;;5135125;27;20065;-73
2023/07/26 10:44:50;;;;;;;;;;;36.20;90.70;;;;;;5135776;27;19910;-73
2023/07/26 10:47:15;;;;;;;;;;;35.30;90.80;;;;;;5134875;27;20267;-74
2023/07/26 10:49:44;;;;;;;;;;;35.50;90.80;;;;;;5135206;27;19907;-74
2023/07/26 10:52:11;;;;;;;;;;;35.90;90.30;;;;;;5134851;27;19904;-74
2023/07/26 10:54:41;;;;;;;;;;;36.00;89.70;;;;;;5134885;27;19910;-74
2023/07/26 10:57:28;;;;;;;;;;;36.10;90.10;;;;;;5134689;27;19910;-74
2023/07/26 10:59:56;;;;;;;;;;;36.10;90.00;;;;;;5135222;27;19911;-73
2023/07/26 11:02:37;;;;;;;;;;;35.80;90.00;;;;;;5134877;27;19958;-74
2023/07/26 11:05:03;;;;;;;;;;;35.70;90.30;;;;;;5133110;27;19903;-73
2023/07/26 11:07:48;;;;;;;;;;;35.70;89.30;;;;;;5134833;27;19907;-74
2023/07/26 11:10:17;;;;;;;;;;;35.60;89.50;;;;;;5134545;27;19911;-73
2023/07/26 11:12:43;;;;;;;;;;;35.30;89.00;;;;;;5134364;27;19911;-73
2023/07/26 11:15:09;;;;;;;;;;;35.30;88.90;;;;;;5134558;27;20235;-74
2023/07/26 11:17:39;;;;;;;;;;;35.40;89.00;;;;;;5133052;27;19950;-73
2023/07/26 11:20:05;;;;;;;;;;;35.20;89.50;;;;;;5134658;27;20243;-73
2023/07/26 11:22:32;;;;;;;;;;;35.30;89.70;;;;;;5133139;27;19903;-74
2023/07/26 11:25:02;;;;;;;;;;;35.20;89.10;;;;;;5134108;27;19945;-74
2023/07/26 11:27:27;;;;;;;;;;;35.40;89.40;;;;;;5134323;27;19914;-74
2023/07/26 11:29:53;;;;;;;;;;;35.60;90.20;;;;;;5132875;27;20296;-74
2023/07/26 11:32:25;;;;;;;;;;;35.90;88.10;;;;;;5134204;27;19911;-73
2023/07/26 11:34:54;;;;;;;;;;;35.80;87.10;;;;;;5133928;27;19934;-74
2023/07/26 11:37:21;;;;;;;;;;;35.90;87.60;;;;;;5134271;27;19903;-73
2023/07/26 11:39:46;;;;;;;;;;;35.20;88.30;;;;;;5134066;27;19903;-74
2023/07/26 11:42:18;;;;;;;;;;;35.30;88.30;;;;;;5134408;27;19903;-74
2023/07/26 11:44:44;;;;;;;;;;;34.90;89.20;;;;;;5134076;27;19903;-73
2023/07/26 11:47:10;;;;;;;;;;;35.00;90.10;;;;;;5132986;27;20051;-73
2023/07/26 11:49:37;;;;;;;;;;;35.30;86.30;;;;;;5134029;27;19934;-74
2023/07/26 11:52:11;;;;;;;;;;;35.60;83.40;;;;;;5133976;27;19903;-73
2023/07/26 11:54:52;;;;;;;;;;;35.80;85.50;;;;;;5134494;27;20002;-73
2023/07/26 11:57:20;;;;;;;;;;;36.00;86.80;;;;;;5133897;27;19903;-74
2023/07/26 11:59:46;;;;;;;;;;;36.00;87.10;;;;;;5134074;27;20347;-73
2023/07/26 12:02:12;;;;;;;;;;;35.50;88.10;;;;;;5134303;27;19994;-74
2023/07/26 12:04:37;;;;;;;;;;;35.00;88.70;;;;;;5133601;27;20347;-72
2023/07/26 12:07:09;;;;;;;;;;;35.10;87.40;;;;;;5132092;27;20051;-74
2023/07/26 12:09:43;;;;;;;;;;;35.30;86.80;;;;;;5134020;27;19907;-73
2023/07/26 12:12:09;;;;;;;;;;;35.50;85.70;;;;;;5133822;27;20006;-73
2023/07/26 12:14:37;;;;;;;;;;;35.80;85.60;;;;;;5134022;27;19942;-74
2023/07/26 12:17:03;;;;;;;;;;;35.50;84.50;;;;;;5133524;27;19903;-74
2023/07/26 12:19:29;;;;;;;;;;;35.80;77.40;;;;;;5132065;28;19904;-74
2023/07/26 12:21:54;;;;;;;;;;;35.90;79.50;;;;;;5134061;28;19907;-73
2023/07/26 12:24:20;;;;;;;;;;;36.10;79.60;;;;;;5134315;28;19910;-74
2023/07/26 12:26:47;;;;;;;;;;;36.00;76.50;;;;;;5133692;27;19918;-74
2023/07/26 12:29:14;;;;;;;;;;;36.10;80.00;;;;;;5133681;27;19907;-73
2023/07/26 12:31:39;;;;;;;;;;;36.00;76.80;;;;;;5133957;27;20051;-74
2023/07/26 12:34:06;;;;;;;;;;;36.00;74.70;;;;;;5133338;28;19980;-73
2023/07/26 12:36:41;;;;;;;;;;;36.20;81.30;;;;;;5133674;27;19904;-74
2023/07/26 12:39:07;;;;;;;;;;;36.20;77.70;;;;;;5138094;27;20000;-73
2023/07/26 12:41:34;;;;;;;;;;;36.20;77.10;;;;;;5137750;27;20357;-73
2023/07/26 12:43:59;;;;;;;;;;;36.30;78.30;;;;;;5137916;27;19910;-74
2023/07/26 12:46:26;;;;;;;;;;;36.30;85.40;;;;;;5137646;27;20002;-74
2023/07/26 12:48:54;;;;;;;;;;;36.30;86.70;;;;;;5137594;27;19907;-74
2023/07/26 12:51:19;;;;;;;;;;;36.10;87.30;;;;;;5137582;27;19904;-73
2023/07/26 12:53:45;;;;;;;;;;;36.20;86.30;;;;;;5137860;27;19910;-74
2023/07/26 12:56:11;;;;;;;;;;;36.00;87.10;;;;;;5137874;27;19939;-74
2023/07/26 12:58:37;;;;;;;;;;;36.10;88.40;;;;;;5137562;27;19947;-74
2023/07/26 13:01:03;;;;;;;;;;;36.40;88.50;;;;;;5137553;27;19923;-73
2023/07/26 13:03:29;;;;;;;;;;;36.40;88.40;;;;;;5135835;27;19946;-74
2023/07/26 13:05:56;;;;;;;;;;;36.00;87.90;;;;;;5137282;27;19915;-74
2023/07/26 13:08:22;;;;;;;;;;;35.70;88.70;;;;;;5137600;27;19914;-72
2023/07/26 13:10:48;;;;;;;;;;;35.40;89.00;;;;;;5137755;27;20263;-74
2023/07/26 13:13:14;;;;;;;;;;;35.60;88.40;;;;;;5135768;27;19903;-74
2023/07/26 13:15:39;;;;;;;;;;;35.50;87.30;;;;;;5137246;27;19904;-76
2023/07/26 13:18:05;;;;;;;;;;;35.50;84.80;;;;;;5137342;27;19903;-74
2023/07/26 13:20:31;;;;;;;;;;;36.00;83.80;;;;;;5137057;27;20252;-73
2023/07/26 13:22:57;;;;;;;;;;;36.10;79.20;;;;;;5136951;27;19911;-73
2023/07/26 13:25:23;;;;;;;;;;;36.20;80.40;;;;;;5136943;27;19998;-74
2023/07/26 13:27:49;;;;;;;;;;;36.10;82.80;;;;;;5135564;27;19912;-75
2023/07/26 13:30:14;;;;;;;;;;;35.90;79.70;;;;;;5136737;27;19907;-75
2023/07/26 13:32:40;;;;;;;;;;;35.80;85.70;;;;;;5136904;27;19997;-74
2023/07/26 13:35:06;;;;;;;;;;;35.90;90.40;;;;;;5135463;27;19998;-75
2023/07/26 13:37:34;;;;;;;;;;;36.10;91.00;;;;;;5136730;27;19990;-75
2023/07/26 13:40:01;;;;;;;;;;;35.80;91.30;;;;;;5137122;27;19903;-75
2023/07/26 13:42:26;;;;;;;;;;;35.80;91.20;;;;;;5135291;27;19903;-72
2023/07/26 13:44:52;;;;;;;;;;;36.00;90.00;;;;;;5137035;27;19911;-74
2023/07/26 13:47:18;;;;;;;;;;;36.10;83.70;;;;;;5136554;27;20363;-74
2023/07/26 13:49:44;;;;;;;;;;;36.00;81.30;;;;;;5136051;27;20351;-74
2023/07/26 13:52:10;;;;;;;;;;;36.10;87.10;;;;;;5136597;27;19926;-74
2023/07/26 13:54:37;;;;;;;;;;;35.90;88.20;;;;;;5136775;27;19903;-73
2023/07/26 13:57:03;;;;;;;;;;;36.00;89.50;;;;;;5136146;27;19904;-74
2023/07/26 13:59:28;;;;;;;;;;;36.10;89.60;;;;;;5136785;27;19903;-74
2023/07/26 14:01:54;;;;;;;;;;;36.10;90.00;;;;;;5136204;27;19908;-73
2023/07/26 14:04:20;;;;;;;;;;;36.20;84.50;;;;;;5136033;27;19903;-74
2023/07/26 14:06:46;;;;;;;;;;;36.20;80.10;;;;;;5136094;27;19911;-74
2023/07/26 14:09:12;;;;;;;;;;;35.80;85.40;;;;;;5136693;27;19903;-74
2023/07/26 14:11:37;;;;;;;;;;;35.60;88.40;;;;;;5136100;27;20274;-74